Time;durP1;ratioP1;P1;durP2;ratioP2;P2;SDS_P1;SDS_P2;PMS_P1;PMS_P2;Temp;Humidity;BMP_temperature;BMP_pressure;BME280_temperature;BME280_humidity;BME280_pressure;Samples;Min_cycle;Max_cycle;Signal;HPM_P1;HPM_P2
2023/02/22 00:00:22;;;;;;;3.38;1.98;;;;;;;1.35;100.00;98957.19;4998167;28;20497;-81
2023/02/22 00:02:49;;;;;;;4.10;2.28;;;;;;;1.49;100.00;98983.66;5007926;28;20730;-81
2023/02/22 00:05:18;;;;;;;4.43;2.15;;;;;;;1.36;100.00;98953.53;5004392;28;20054;-81
2023/02/22 00:07:46;;;;;;;3.83;2.00;;;;;;;1.49;100.00;98982.78;5009764;28;20473;-81
2023/02/22 00:10:14;;;;;;;5.80;2.20;;;;;;;1.54;100.00;98969.84;4996682;28;20057;-81
2023/02/22 00:12:43;;;;;;;2.53;1.90;;;;;;;1.58;100.00;98979.31;5010622;28;20276;-82
2023/02/22 00:15:13;;;;;;;4.13;2.43;;;;;;;1.64;100.00;98981.47;5002474;28;20046;-81
2023/02/22 00:17:39;;;;;;;4.97;1.67;;;;;;;1.41;100.00;98972.72;4991196;28;20307;-81
2023/02/22 00:20:07;;;;;;;9.05;2.30;;;;;;;1.48;100.00;98962.34;5001048;28;20133;-81
2023/02/22 00:22:34;;;;;;;3.22;1.77;;;;;;;1.41;100.00;98941.41;5006942;28;20060;-81
2023/02/22 00:25:00;;;;;;;5.55;1.77;;;;;;;1.45;100.00;98942.00;5003540;28;20052;-81
2023/02/22 00:27:27;;;;;;;4.18;2.10;;;;;;;1.58;100.00;98958.72;5017549;28;20072;-81
2023/02/22 00:29:55;;;;;;;6.57;3.60;;;;;;;1.39;100.00;98934.50;5003099;28;20069;-81
2023/02/22 00:32:22;;;;;;;3.10;1.80;;;;;;;1.46;100.00;98943.72;5004351;28;20103;-81
2023/02/22 00:34:52;;;;;;;6.40;2.00;;;;;;;1.54;100.00;98970.69;5002071;28;20049;-81
2023/02/22 00:37:19;;;;;;;8.00;2.42;;;;;;;1.40;100.00;98941.53;5009418;28;20080;-81
2023/02/22 00:39:47;;;;;;;3.20;1.67;;;;;;;1.42;100.00;98929.72;5006864;28;20051;-81
2023/02/22 00:42:13;;;;;;;6.00;2.40;;;;;;;1.47;100.00;98942.72;4996824;28;20092;-81
2023/02/22 00:44:40;;;;;;;2.67;2.00;;;;;;;1.56;100.00;98967.88;5001307;28;20038;-81
2023/02/22 00:47:08;;;;;;;5.07;2.25;;;;;;;1.25;100.00;98930.34;5012224;28;20058;-81
2023/02/22 00:49:35;;;;;;;3.30;1.85;;;;;;;1.21;100.00;98937.78;5012114;28;20072;-81
2023/02/22 00:52:01;;;;;;;4.40;1.92;;;;;;;1.04;100.00;98936.53;5012041;28;20046;-81
2023/02/22 00:54:28;;;;;;;3.80;1.98;;;;;;;0.98;100.00;98918.31;5016837;28;20407;-82
2023/02/22 00:56:54;;;;;;;5.68;2.10;;;;;;;1.09;100.00;98914.72;4992853;28;20064;-81
2023/02/22 00:59:21;;;;;;;2.25;1.83;;;;;;;1.21;100.00;98921.72;4998776;28;20054;-82
2023/02/22 01:01:47;;;;;;;3.15;2.15;;;;;;;1.29;100.00;98937.13;5006554;28;20504;-81
2023/02/22 01:04:17;;;;;;;3.88;2.00;;;;;;;1.05;100.00;98935.56;5011458;28;20046;-81
2023/02/22 01:06:43;;;;;;;2.55;2.15;;;;;;;1.17;100.00;98927.47;5011077;28;20049;-81
2023/02/22 01:09:10;;;;;;;3.90;2.50;;;;;;;1.06;100.00;98907.78;5001257;28;20486;-81
2023/02/22 01:11:36;;;;;;;4.80;2.92;;;;;;;1.19;100.00;98928.16;5012076;28;20050;-81
2023/02/22 01:14:08;;;;;;;8.75;3.35;;;;;;;1.20;100.00;98930.72;5002559;28;20409;-81
2023/02/22 01:16:35;;;;;;;4.68;2.70;;;;;;;1.12;100.00;98927.84;5003262;28;20405;-81
2023/02/22 01:19:02;;;;;;;5.65;2.67;;;;;;;0.94;100.00;98899.97;5011771;28;20073;-81
2023/02/22 01:21:29;;;;;;;4.93;2.47;;;;;;;0.99;100.00;98932.53;5011314;28;20062;-81
2023/02/22 01:23:56;;;;;;;4.65;2.60;;;;;;;0.91;100.00;98909.09;5011150;28;20068;-81
2023/02/22 01:26:22;;;;;;;4.05;2.40;;;;;;;0.89;100.00;98908.41;5006992;28;20061;-81
2023/02/22 01:28:49;;;;;;;4.78;2.72;;;;;;;0.83;100.00;98887.50;5042747;28;20047;-81
2023/02/22 01:31:15;;;;;;;5.28;2.97;;;;;;;1.07;100.00;98924.72;4999618;28;20054;-81
2023/02/22 01:33:43;;;;;;;6.70;3.08;;;;;;;1.08;100.00;98912.19;4993614;28;20061;-81
2023/02/22 01:36:10;;;;;;;6.03;3.03;;;;;;;0.85;100.00;98870.31;5022667;28;20053;-81
2023/02/22 01:38:38;;;;;;;5.53;3.05;;;;;;;0.87;100.00;98892.47;5011643;28;20107;-81
2023/02/22 01:41:05;;;;;;;9.80;3.20;;;;;;;0.93;100.00;98898.28;5011784;28;20042;-81
2023/02/22 01:43:33;;;;;;;7.50;3.78;;;;;;;0.81;100.00;98881.41;4991165;28;20047;-81
2023/02/22 01:46:01;;;;;;;7.75;4.43;;;;;;;0.81;100.00;98884.97;4999345;28;20063;-81
2023/02/22 01:48:34;;;;;;;13.20;4.32;;;;;;;0.95;100.00;98904.31;5011734;28;20073;-81
2023/02/22 01:51:09;;;;;;;7.03;3.88;;;;;;;0.86;100.00;98880.06;5009543;28;20050;-81
2023/02/22 01:53:41;;;;;;;5.70;3.33;;;;;;;0.69;100.00;98880.63;5046318;28;20047;-80
2023/02/22 01:56:08;;;;;;;6.05;3.40;;;;;;;0.87;100.00;98902.31;5004445;28;20111;-81
2023/02/22 01:58:38;;;;;;;8.23;4.72;;;;;;;0.85;100.00;98896.25;5000561;28;20493;-81
2023/02/22 02:01:06;;;;;;;9.50;4.45;;;;;;;0.87;100.00;98889.78;5006114;28;20052;-81
2023/02/22 02:03:37;;;;;;;7.10;4.25;;;;;;;0.91;100.00;98887.69;5005045;28;20046;-81
2023/02/22 02:06:07;;;;;;;8.25;3.88;;;;;;;0.80;100.00;98890.41;5031203;28;20138;-81
2023/02/22 02:08:41;;;;;;;8.88;4.82;;;;;;;0.75;100.00;98872.06;5058244;28;20050;-81
2023/02/22 02:11:10;;;;;;;8.18;5.00;;;;;;;0.87;100.00;98851.44;5003203;28;20046;-81
2023/02/22 02:13:36;;;;;;;9.10;4.57;;;;;;;1.14;100.00;98871.50;4997646;28;20072;-81
2023/02/22 02:16:03;;;;;;;7.30;4.07;;;;;;;1.16;100.00;98846.28;5008896;28;20050;-81
2023/02/22 02:18:31;;;;;;;7.90;4.40;;;;;;;1.29;100.00;98850.56;5007059;28;20408;-81
2023/02/22 02:21:31;;;;;;;8.52;4.30;;;;;;;1.38;100.00;98855.97;5008931;28;20046;-82
2023/02/22 02:24:38;;;;;;;10.85;5.10;;;;;;;1.44;100.00;98851.91;5023564;28;20049;-81
2023/02/22 02:27:18;;;;;;;13.70;4.63;;;;;;;1.66;100.00;98863.44;4998927;28;20312;-81
2023/02/22 02:30:20;;;;;;;8.27;4.10;;;;;;;1.55;100.00;98853.63;4991649;28;20421;-81
2023/02/22 02:32:57;;;;;;;8.43;4.43;;;;;;;1.57;100.00;98852.53;5001129;28;20485;-81
2023/02/22 02:35:47;;;;;;;7.95;4.90;;;;;;;1.38;100.00;98831.00;5007283;28;20046;-81
2023/02/22 02:38:23;;;;;;;9.68;4.38;;;;;;;1.32;100.00;98818.16;5006046;28;20054;-81
2023/02/22 02:40:58;;;;;;;7.25;4.68;;;;;;;1.36;100.00;98817.75;5002009;28;20046;-81
2023/02/22 02:43:32;;;;;;;7.53;4.20;;;;;;;1.24;100.00;98817.00;4996160;28;20042;-81
2023/02/22 02:46:03;;;;;;;12.38;3.97;;;;;;;1.24;100.00;98818.84;5008467;28;20053;-81
2023/02/22 02:48:34;;;;;;;12.90;4.28;;;;;;;1.23;100.00;98809.09;5006052;28;20054;-81
2023/02/22 02:51:04;;;;;;;9.95;4.78;;;;;;;1.40;100.00;98845.13;4998058;28;20051;-81
2023/02/22 02:53:34;;;;;;;8.45;3.97;;;;;;;1.17;100.00;98825.69;5007970;28;20400;-80
2023/02/22 02:56:00;;;;;;;6.15;3.67;;;;;;;1.04;100.00;98801.84;5006777;28;20065;-81
2023/02/22 02:58:27;;;;;;;9.70;3.55;;;;;;;1.22;100.00;98843.06;5041859;28;20059;-81
2023/02/22 03:00:56;;;;;;;7.30;3.42;;;;;;;0.82;100.00;98813.53;5002047;28;20499;-81
2023/02/22 03:03:46;;;;;;;7.03;3.30;;;;;;;0.85;100.00;98821.31;5005235;28;20405;-81
2023/02/22 03:06:39;;;;;;;4.30;3.03;;;;;;;0.65;100.00;98791.75;5008435;28;20058;-81
2023/02/22 03:09:13;;;;;;;5.88;3.65;;;;;;;0.77;100.00;98827.31;5007381;28;20512;-81
2023/02/22 03:11:51;;;;;;;5.65;3.67;;;;;;;0.68;100.00;98785.28;5001587;28;20046;-81
2023/02/22 03:14:24;;;;;;;7.35;3.50;;;;;;;0.70;100.00;98794.03;5004756;28;20485;-81
2023/02/22 03:16:58;;;;;;;5.25;3.10;;;;;;;0.65;100.00;98790.91;4999445;28;20045;-81
2023/02/22 03:19:33;;;;;;;6.82;3.65;;;;;;;0.66;100.00;98806.84;5007192;28;20464;-81
2023/02/22 03:22:07;;;;;;;10.20;4.47;;;;;;;0.61;100.00;98809.03;4990032;28;20056;-81
2023/02/22 03:24:41;;;;;;;6.20;3.28;;;;;;;0.62;100.00;98781.31;5006122;28;20149;-81
2023/02/22 03:27:12;;;;;;;11.60;3.47;;;;;;;0.86;100.00;98831.88;4995527;28;20077;-81
2023/02/22 03:29:42;;;;;;;3.90;2.47;;;;;;;0.65;100.00;98793.59;5007432;28;20046;-81
2023/02/22 03:32:15;;;;;;;5.60;3.63;;;;;;;0.59;100.00;98778.91;5006944;28;20042;-81
2023/02/22 03:34:47;;;;;;;10.38;4.25;;;;;;;0.47;100.00;98783.47;5043051;28;20049;-81
2023/02/22 03:37:17;;;;;;;7.70;3.55;;;;;;;0.41;100.00;98783.97;5006147;28;20062;-81
2023/02/22 03:39:47;;;;;;;9.30;3.65;;;;;;;0.31;100.00;98769.69;5006093;28;20489;-81
2023/02/22 03:42:17;;;;;;;5.10;2.97;;;;;;;0.52;100.00;98796.44;5006950;28;20066;-81
2023/02/22 03:44:47;;;;;;;13.88;3.67;;;;;;;0.47;100.00;98778.13;4999172;28;20091;-81
2023/02/22 03:47:18;;;;;;;6.55;3.80;;;;;;;0.61;100.00;98773.41;5003316;28;20081;-81
2023/02/22 03:49:53;;;;;;;7.10;3.70;;;;;;;0.73;100.00;98803.63;5004251;28;20077;-81
2023/02/22 03:52:22;;;;;;;15.20;4.03;;;;;;;0.46;100.00;98780.91;5000668;28;20053;-81
2023/02/22 03:54:52;;;;;;;7.65;4.25;;;;;;;0.67;100.00;98811.19;5004776;28;20511;-81
2023/02/22 03:57:25;;;;;;;5.88;3.75;;;;;;;0.50;100.00;98795.75;5003632;28;20111;-81
2023/02/22 03:59:52;;;;;;;7.97;4.18;;;;;;;0.53;100.00;98795.47;5004094;28;20050;-81
2023/02/22 04:02:18;;;;;;;6.88;4.05;;;;;;;0.48;100.00;98786.97;5008751;28;20057;-81
2023/02/22 04:04:47;;;;;;;9.65;4.45;;;;;;;0.55;100.00;98801.53;5005480;28;20387;-81
2023/02/22 04:07:14;;;;;;;7.55;3.92;;;;;;;0.37;100.00;98787.88;5004851;28;20386;-81
2023/02/22 04:09:40;;;;;;;9.95;4.03;;;;;;;0.45;100.00;98792.59;5009231;28;20050;-81
2023/02/22 04:12:07;;;;;;;7.10;3.72;;;;;;;0.44;100.00;98804.28;5002883;28;20057;-81
2023/02/22 04:14:34;;;;;;;6.38;3.53;;;;;;;0.41;100.00;98801.88;5010635;28;20060;-81
2023/02/22 04:17:00;;;;;;;9.57;3.53;;;;;;;0.54;100.00;98810.53;5002668;28;20050;-81
2023/02/22 04:19:27;;;;;;;7.63;4.32;;;;;;;0.44;100.00;98821.16;5010922;28;20486;-81
2023/02/22 04:21:55;;;;;;;6.00;4.03;;;;;;;0.14;100.00;98771.94;5009605;28;20058;-81
2023/02/22 04:24:21;;;;;;;6.10;3.50;;;;;;;0.04;100.00;98780.88;5001462;28;20140;-81
2023/02/22 04:26:48;;;;;;;7.00;4.28;;;;;;;-0.08;100.00;98778.22;5009671;28;20038;-81
2023/02/22 04:29:15;;;;;;;5.57;3.70;;;;;;;0.03;100.00;98795.19;5010636;28;20128;-81
2023/02/22 04:31:41;;;;;;;8.45;3.88;;;;;;;0.10;100.00;98807.09;5010775;28;20494;-81
2023/02/22 04:34:08;;;;;;;7.65;4.05;;;;;;;-0.06;100.00;98773.63;5003558;28;20054;-81
2023/02/22 04:36:35;;;;;;;8.57;3.40;;;;;;;-0.07;100.00;98771.91;5006434;28;20110;-81
2023/02/22 04:39:04;;;;;;;6.88;3.67;;;;;;;-0.08;100.00;98770.19;5009783;28;20046;-81
2023/02/22 04:41:31;;;;;;;7.33;3.67;;;;;;;0.01;100.00;98781.97;5001257;28;20050;-81
2023/02/22 04:43:57;;;;;;;7.00;4.20;;;;;;;0.03;100.00;98764.00;5010015;28;20053;-81
2023/02/22 04:46:24;;;;;;;6.38;4.00;;;;;;;0.29;100.00;98809.09;5008180;28;20049;-80
2023/02/22 04:48:50;;;;;;;8.57;5.25;;;;;;;-0.01;100.00;98774.06;5011084;28;20065;-81
2023/02/22 04:51:18;;;;;;;8.00;4.55;;;;;;;0.04;100.00;98773.69;4999224;28;20396;-81
2023/02/22 04:53:45;;;;;;;6.82;3.78;;;;;;;0.18;100.00;98796.59;5004402;28;20050;-81
2023/02/22 04:56:13;;;;;;;8.70;4.68;;;;;;;-0.06;100.00;98759.38;5010198;28;20049;-81
2023/02/22 04:58:39;;;;;;;7.22;4.47;;;;;;;0.11;100.00;98787.41;5005710;28;20481;-81
2023/02/22 05:01:07;;;;;;;11.20;5.78;;;;;;;0.16;100.00;98785.19;4998777;28;20047;-81
2023/02/22 05:03:33;;;;;;;11.13;5.13;;;;;;;0.22;100.00;98787.34;5000971;28;20045;-81
2023/02/22 05:06:00;;;;;;;8.40;4.20;;;;;;;0.10;100.00;98773.19;5008134;28;20046;-81
2023/02/22 05:08:26;;;;;;;8.25;4.32;;;;;;;0.21;100.00;98795.50;5003097;28;20057;-81
2023/02/22 05:10:53;;;;;;;8.88;4.57;;;;;;;0.07;100.00;98753.88;5008751;28;20042;-81
2023/02/22 05:13:21;;;;;;;8.75;4.57;;;;;;;0.08;100.00;98768.97;5000031;28;20516;-81
2023/02/22 05:15:47;;;;;;;6.38;3.65;;;;;;;-0.01;100.00;98779.41;5009919;28;20046;-81
2023/02/22 05:18:14;;;;;;;11.75;5.00;;;;;;;0.08;100.00;98769.78;5004711;28;20507;-80
2023/02/22 05:20:41;;;;;;;12.18;4.53;;;;;;;0.13;100.00;98775.59;5009006;28;20045;-80
2023/02/22 05:23:07;;;;;;;7.57;4.88;;;;;;;0.10;100.00;98780.34;5002252;28;20052;-81
2023/02/22 05:25:34;;;;;;;9.82;4.72;;;;;;;-0.07;100.00;98769.25;5009445;28;20058;-80
2023/02/22 05:28:03;;;;;;;9.07;4.82;;;;;;;-0.04;100.00;98766.31;4990980;28;20061;-81
2023/02/22 05:30:32;;;;;;;11.45;4.97;;;;;;;-0.02;100.00;98759.00;5005796;28;20061;-80
2023/02/22 05:32:59;;;;;;;7.50;4.38;;;;;;;0.11;100.00;98782.06;5002738;28;20060;-81
2023/02/22 05:35:27;;;;;;;7.97;4.68;;;;;;;0.12;100.00;98783.75;5004196;28;20042;-81
2023/02/22 05:37:54;;;;;;;11.32;4.80;;;;;;;-0.09;100.00;98754.31;5003096;28;20133;-81
2023/02/22 05:40:23;;;;;;;8.07;4.93;;;;;;;-0.04;100.00;98755.63;5009745;28;20425;-81
2023/02/22 05:42:50;;;;;;;10.32;5.03;;;;;;;-0.12;100.00;98739.41;5008557;28;20088;-81
2023/02/22 05:45:19;;;;;;;11.85;5.40;;;;;;;-0.21;100.00;98750.81;5006045;28;20072;-81
2023/02/22 05:47:47;;;;;;;9.82;4.80;;;;;;;-0.22;100.00;98746.47;5010075;28;20066;-80
2023/02/22 05:50:15;;;;;;;8.15;4.63;;;;;;;-0.12;100.00;98746.53;5006208;28;20045;-81
2023/02/22 05:52:42;;;;;;;9.25;4.18;;;;;;;-0.08;100.00;98756.00;5008756;28;20572;-81
2023/02/22 05:55:11;;;;;;;9.60;4.47;;;;;;;-0.13;100.00;98761.72;5007564;28;20398;-80
2023/02/22 05:57:37;;;;;;;7.93;4.65;;;;;;;-0.17;100.00;98754.09;5008694;28;20428;-81
2023/02/22 06:00:06;;;;;;;8.80;4.95;;;;;;;-0.30;100.00;98755.13;5007184;28;20058;-81
2023/02/22 06:02:33;;;;;;;7.65;4.80;;;;;;;-0.19;100.00;98757.75;4994697;28;20087;-80
2023/02/22 06:05:00;;;;;;;9.32;4.88;;;;;;;-0.20;100.00;98768.56;5001496;28;20054;-81
2023/02/22 06:07:27;;;;;;;17.33;8.52;;;;;;;-0.15;100.00;98776.19;4998788;28;20046;-81
2023/02/22 06:09:53;;;;;;;10.13;5.68;;;;;;;-0.11;100.00;98756.25;5013346;28;20081;-81
2023/02/22 06:12:21;;;;;;;9.57;5.28;;;;;;;-0.09;100.00;98778.34;4996409;28;20046;-81
2023/02/22 06:14:48;;;;;;;9.52;4.72;;;;;;;-0.15;100.00;98762.81;5000163;28;20485;-81
2023/02/22 06:17:18;;;;;;;13.90;5.63;;;;;;;-0.23;100.00;98756.28;5003258;28;20139;-80
2023/02/22 06:19:44;;;;;;;8.75;4.70;;;;;;;-0.25;100.00;98755.56;5022305;28;20047;-81
2023/02/22 06:22:16;;;;;;;15.05;5.75;;;;;;;-0.10;100.00;98787.38;5082907;28;20058;-80
2023/02/22 06:24:43;;;;;;;7.70;4.70;;;;;;;-0.24;100.00;98785.78;5002580;28;20056;-80
2023/02/22 06:27:09;;;;;;;11.25;4.97;;;;;;;-0.23;100.00;98756.28;5002138;28;20130;-81
2023/02/22 06:29:36;;;;;;;10.38;5.40;;;;;;;-0.27;100.00;98767.34;5004255;28;20073;-81
2023/02/22 06:32:02;;;;;;;9.75;4.47;;;;;;;-0.14;100.00;98780.56;5006761;28;20432;-80
2023/02/22 06:34:29;;;;;;;10.35;4.88;;;;;;;-0.12;100.00;98774.13;5006476;28;20046;-81
2023/02/22 06:36:55;;;;;;;9.30;5.20;;;;;;;-0.17;100.00;98781.66;5007830;28;20425;-81
2023/02/22 06:39:24;;;;;;;12.40;5.03;;;;;;;0.00;100.00;98777.63;5044157;28;20457;-80
2023/02/22 06:41:51;;;;;;;8.57;4.63;;;;;;;-0.09;100.00;98784.56;5006739;28;20133;-80
2023/02/22 06:44:17;;;;;;;9.80;4.80;;;;;;;0.13;100.00;98804.16;5005103;28;20085;-81
2023/02/22 06:46:49;;;;;;;14.40;5.47;;;;;;;0.13;100.00;98791.63;4995016;28;20042;-80
2023/02/22 06:49:16;;;;;;;9.88;4.45;;;;;;;0.17;100.00;98808.28;5006389;28;20045;-81
2023/02/22 06:51:43;;;;;;;8.02;5.22;;;;;;;0.11;100.00;98798.94;5008860;28;20053;-81
2023/02/22 06:54:10;;;;;;;11.13;5.10;;;;;;;0.20;100.00;98777.75;5034930;28;20516;-81
2023/02/22 06:56:38;;;;;;;8.63;4.88;;;;;;;0.34;100.00;98807.69;5047573;28;20390;-80
2023/02/22 06:59:05;;;;;;;9.50;4.95;;;;;;;0.30;100.00;98792.91;5007778;28;20049;-81
2023/02/22 07:01:31;;;;;;;10.05;4.82;;;;;;;0.38;100.00;98796.75;5020344;28;20133;-81
2023/02/22 07:03:58;;;;;;;9.35;4.43;;;;;;;0.30;100.00;98789.38;4998164;28;20077;-81
2023/02/22 07:06:24;;;;;;;11.02;5.35;;;;;;;0.44;100.00;98806.97;5007447;28;20500;-81
2023/02/22 07:08:51;;;;;;;8.60;4.80;;;;;;;0.31;100.00;98793.75;5008396;28;20061;-81
2023/02/22 07:11:17;;;;;;;11.52;5.15;;;;;;;0.42;100.00;98796.38;5016313;28;20052;-80
2023/02/22 07:13:45;;;;;;;11.45;5.45;;;;;;;0.68;100.00;98809.38;5008734;28;20038;-81
2023/02/22 07:16:12;;;;;;;10.00;5.68;;;;;;;0.70;100.00;98802.91;5057014;27;20387;-81
2023/02/22 07:18:38;;;;;;;11.52;4.65;;;;;;;0.87;100.00;98816.66;5024214;28;20499;-78
2023/02/22 07:21:06;;;;;;;8.48;5.00;;;;;;;0.68;100.00;98804.03;4992825;28;20053;-80
2023/02/22 07:23:33;;;;;;;11.20;5.15;;;;;;;0.82;100.00;98798.31;5003676;28;20050;-80
2023/02/22 07:26:00;;;;;;;14.60;4.93;;;;;;;0.90;100.00;98808.38;5008098;28;20046;-80
2023/02/22 07:28:26;;;;;;;10.95;5.10;;;;;;;1.11;100.00;98824.41;5031246;28;20064;-80
2023/02/22 07:30:54;;;;;;;8.73;5.18;;;;;;;1.09;100.00;98812.16;5015713;28;20058;-80
2023/02/22 07:33:21;;;;;;;9.02;5.45;;;;;;;1.18;100.00;98819.38;5013689;28;20406;-80
2023/02/22 07:35:49;;;;;;;15.20;7.78;;;;;;;1.12;100.00;98820.75;5074408;28;20050;-80
2023/02/22 07:38:18;;;;;;;20.23;8.40;;;;;;;1.13;100.00;98811.75;5018816;28;20397;-80
2023/02/22 07:40:46;;;;;;;15.10;7.78;;;;;;;1.16;100.00;98791.88;5007811;28;20083;-80
2023/02/22 07:43:18;;;;;;;12.65;7.20;;;;;;;1.47;100.00;98829.38;4993885;28;20165;-80
2023/02/22 07:45:45;;;;;;;17.48;7.35;;;;;;;1.37;100.00;98798.03;5053097;28;20064;-80
2023/02/22 07:48:14;;;;;;;11.02;6.72;;;;;;;1.49;100.00;98814.00;5014477;28;20042;-79
2023/02/22 07:50:41;;;;;;;14.07;7.60;;;;;;;1.54;100.00;98809.09;5067689;28;20047;-80
2023/02/22 07:53:14;;;;;;;16.23;8.30;;;;;;;1.65;100.00;98813.50;5051683;28;20054;-80
2023/02/22 07:55:42;;;;;;;14.38;7.30;;;;;;;1.64;100.00;98804.63;4988113;28;20070;-80
2023/02/22 07:58:09;;;;;;;12.82;7.28;;;;;;;1.71;100.00;98794.19;4996043;28;20054;-80
2023/02/22 08:00:38;;;;;;;22.67;7.28;;;;;;;1.77;100.00;98796.31;4999382;28;20045;-80
2023/02/22 08:03:09;;;;;;;11.65;7.85;;;;;;;1.89;100.00;98819.31;5009817;28;21784;-80
2023/02/22 08:05:45;;;;;;;13.98;7.72;;;;;;;1.93;100.00;98793.94;4998701;28;20054;-79
2023/02/22 08:08:13;;;;;;;15.27;7.57;;;;;;;2.01;100.00;98792.41;5007036;28;20444;-80
2023/02/22 08:10:40;;;;;;;15.18;7.45;;;;;;;2.18;100.00;98796.22;5006080;28;20574;-80
2023/02/22 08:13:06;;;;;;;15.35;7.70;;;;;;;2.35;100.00;98818.81;5006818;28;20075;-80
2023/02/22 08:15:35;;;;;;;14.93;7.00;;;;;;;2.27;100.00;98790.00;4998841;28;20046;-80
2023/02/22 08:18:02;;;;;;;15.95;7.63;;;;;;;2.48;100.00;98806.81;4995827;28;20053;-80
2023/02/22 08:20:29;;;;;;;14.55;9.15;;;;;;;2.51;100.00;98805.66;5007079;28;20050;-80
2023/02/22 08:22:58;;;;;;;16.98;7.65;;;;;;;2.55;100.00;98790.16;5006879;28;20108;-80
2023/02/22 08:25:27;;;;;;;22.55;7.82;;;;;;;2.75;100.00;98812.44;5007431;28;20050;-80
2023/02/22 08:27:59;;;;;;;20.00;9.43;;;;;;;2.68;100.00;98803.25;5003520;28;20046;-80
2023/02/22 08:30:28;;;;;;;17.98;7.88;;;;;;;3.01;100.00;98808.16;5007364;28;20501;-80
2023/02/22 08:32:54;;;;;;;19.38;8.20;;;;;;;3.00;100.00;98786.81;4995402;28;20047;-80
2023/02/22 08:35:22;;;;;;;12.68;7.13;;;;;;;3.26;100.00;98795.06;5054852;28;20409;-80
2023/02/22 08:37:50;;;;;;;15.85;7.07;;;;;;;3.36;100.00;98786.97;5110444;28;20058;-80
2023/02/22 08:40:21;;;;;;;17.70;8.00;;;;;;;3.49;100.00;98795.53;5090221;28;20058;-80
2023/02/22 08:42:48;;;;;;;12.88;6.95;;;;;;;3.63;100.00;98810.31;5005550;28;20057;-80
2023/02/22 08:45:15;;;;;;;19.58;8.57;;;;;;;3.78;100.00;98815.19;5010666;28;20049;-80
2023/02/22 08:47:42;;;;;;;11.50;6.68;;;;;;;4.01;100.00;98821.84;5010664;28;20212;-80
2023/02/22 08:50:10;;;;;;;10.30;7.00;;;;;;;3.96;100.00;98810.69;5008933;28;20216;-80
2023/02/22 08:52:38;;;;;;;10.63;6.93;;;;;;;3.99;100.00;98798.78;5008879;28;20485;-80
2023/02/22 08:55:05;;;;;;;10.68;7.38;;;;;;;4.18;100.00;98824.72;4991600;28;20422;-80
2023/02/22 08:57:33;;;;;;;11.68;6.88;;;;;;;4.19;100.00;98804.88;5003411;28;20046;-80
2023/02/22 09:00:00;;;;;;;11.80;6.82;;;;;;;4.16;100.00;98792.56;5010751;28;20054;-79
2023/02/22 09:02:26;;;;;;;15.40;7.00;;;;;;;4.41;100.00;98809.81;5003865;28;20069;-79
2023/02/22 09:04:53;;;;;;;13.75;7.78;;;;;;;4.54;100.00;98803.19;5009241;28;20042;-79
2023/02/22 09:07:19;;;;;;;13.25;7.43;;;;;;;4.65;100.00;98786.75;5018262;28;20502;-79
2023/02/22 09:09:46;;;;;;;16.20;8.45;;;;;;;4.71;100.00;98782.59;5042301;27;20054;-80
2023/02/22 09:12:13;;;;;;;15.05;6.68;;;;;;;5.07;100.00;98812.16;4997775;28;20158;-80
2023/02/22 09:14:41;;;;;;;11.80;7.22;;;;;;;5.05;100.00;98798.84;5010156;28;20073;-80
2023/02/22 09:17:08;;;;;;;10.35;6.90;;;;;;;4.96;100.00;98781.78;5008991;28;20091;-79
2023/02/22 09:19:35;;;;;;;12.57;5.88;;;;;;;5.05;100.00;98787.22;5010216;28;20132;-79
2023/02/22 09:22:01;;;;;;;12.05;6.20;;;;;;;5.13;100.00;98781.88;5004746;28;20046;-80
2023/02/22 09:24:28;;;;;;;16.08;6.38;;;;;;;5.23;100.00;98793.41;5009153;28;20053;-80
2023/02/22 09:26:55;;;;;;;12.80;6.93;;;;;;;5.33;100.00;98779.81;5005369;28;20060;-80
2023/02/22 09:29:22;;;;;;;10.90;6.32;;;;;;;5.42;100.00;98778.84;5009815;28;20152;-80
2023/02/22 09:31:52;;;;;;;11.30;6.47;;;;;;;5.52;100.00;98769.78;5010025;28;20050;-80
2023/02/22 09:34:21;;;;;;;11.65;6.75;;;;;;;5.69;100.00;98779.63;5009412;28;20602;-80
2023/02/22 09:36:49;;;;;;;13.77;6.70;;;;;;;5.80;100.00;98776.63;5009674;28;20080;-80
2023/02/22 09:39:17;;;;;;;17.38;6.20;;;;;;;5.94;100.00;98764.34;5009300;28;20049;-80
2023/02/22 09:41:51;;;;;;;11.00;7.22;;;;;;;5.95;100.00;98768.75;5040146;28;20091;-80
2023/02/22 09:44:23;;;;;;;9.50;5.43;;;;;;;6.29;100.00;98792.13;5007265;28;20049;-80
2023/02/22 09:46:55;;;;;;;8.82;6.13;;;;;;;6.38;100.00;98790.25;5009703;28;20057;-80
2023/02/22 09:49:25;;;;;;;12.77;5.90;;;;;;;6.31;100.00;98771.19;4998388;28;20057;-80
2023/02/22 09:51:58;;;;;;;12.02;7.03;;;;;;;6.41;100.00;98762.94;5005675;28;20068;-79
2023/02/22 09:54:30;;;;;;;11.43;6.40;;;;;;;6.47;100.00;98767.66;5002028;28;20054;-80
2023/02/22 09:57:03;;;;;;;14.18;7.10;;;;;;;6.57;100.00;98754.00;5009370;28;20049;-80
2023/02/22 09:59:37;;;;;;;12.90;6.40;;;;;;;6.58;100.00;98746.72;5009961;28;20054;-80
2023/02/22 10:02:20;;;;;;;12.13;6.65;;;;;;;6.90;100.00;98764.78;5009213;28;20046;-80
2023/02/22 10:04:52;;;;;;;11.55;5.75;;;;;;;6.94;100.00;98746.34;5004961;28;20405;-80
2023/02/22 10:07:26;;;;;;;10.43;6.10;;;;;;;7.15;100.00;98764.72;5026270;28;20050;-80
2023/02/22 10:09:55;;;;;;;12.15;6.15;;;;;;;7.24;100.00;98761.84;5009336;28;20070;-80
2023/02/22 10:12:31;;;;;;;9.82;6.47;;;;;;;7.31;100.00;98737.63;5005568;28;20057;-80
2023/02/22 10:15:15;;;;;;;18.38;7.20;;;;;;;7.49;100.00;98736.56;5009620;28;20054;-80
2023/02/22 10:17:51;;;;;;;10.45;6.43;;;;;;;7.70;100.00;98744.91;5007534;28;20053;-80
2023/02/22 10:20:37;;;;;;;12.70;5.97;;;;;;;8.05;98.07;98731.84;5009592;28;20042;-80
2023/02/22 10:23:13;;;;;;;11.77;5.95;;;;;;;8.12;98.08;98732.00;5045618;28;20440;-80
2023/02/22 10:25:43;;;;;;;14.40;5.95;;;;;;;8.35;97.44;98759.06;5055700;28;20099;-80
2023/02/22 10:28:17;;;;;;;10.57;6.05;;;;;;;8.29;94.21;98725.41;5006427;28;20069;-80
2023/02/22 10:30:53;;;;;;;16.10;7.00;;;;;;;8.49;93.73;98723.09;4989488;28;20084;-80
2023/02/22 10:33:23;;;;;;;12.70;5.75;;;;;;;8.92;91.32;98748.81;4988932;28;20129;-80
2023/02/22 10:35:51;;;;;;;8.90;5.40;;;;;;;8.82;90.92;98717.38;4988646;28;20054;-80
2023/02/22 10:38:22;;;;;;;9.48;5.78;;;;;;;9.09;89.26;98734.03;5059818;28;20061;-80
2023/02/22 10:40:53;;;;;;;14.20;5.70;;;;;;;9.15;86.86;98711.63;5041885;28;20060;-80
2023/02/22 10:43:20;;;;;;;8.07;5.70;;;;;;;9.49;84.60;98748.16;5007744;28;20409;-80
2023/02/22 10:45:47;;;;;;;10.15;6.20;;;;;;;9.49;82.80;98729.19;5005906;28;20058;-80
2023/02/22 10:48:18;;;;;;;16.42;6.25;;;;;;;9.61;84.39;98724.13;5000352;28;20050;-80
2023/02/22 10:50:47;;;;;;;9.60;5.65;;;;;;;9.82;83.50;98744.22;5006657;28;20574;-80
2023/02/22 10:53:15;;;;;;;12.25;5.60;;;;;;;9.76;81.99;98707.81;5000901;28;20133;-80
2023/02/22 10:56:06;;;;;;;13.00;6.45;;;;;;;9.82;82.77;98709.75;5008739;28;20095;-80
2023/02/22 10:58:40;;;;;;;10.65;6.13;;;;;;;10.00;82.42;98738.38;5008799;28;20057;-80
2023/02/22 11:01:19;;;;;;;13.77;6.22;;;;;;;9.93;82.75;98724.69;4999274;28;20057;-80
2023/02/22 11:03:45;;;;;;;10.40;5.32;;;;;;;10.12;80.27;98739.53;5002531;28;20107;-80
2023/02/22 11:06:20;;;;;;;12.43;6.22;;;;;;;10.02;79.23;98703.69;4998700;28;20060;-80
2023/02/22 11:08:50;;;;;;;13.20;6.03;;;;;;;10.27;78.86;98725.91;5008302;28;20053;-80
2023/02/22 11:11:24;;;;;;;11.30;5.47;;;;;;;10.34;77.39;98726.00;5044119;28;20514;-81
2023/02/22 11:13:55;;;;;;;12.68;5.60;;;;;;;10.23;77.62;98700.97;5081873;28;20055;-80
2023/02/22 11:16:28;;;;;;;9.50;5.90;;;;;;;10.40;77.92;98728.78;5002611;28;20058;-80
2023/02/22 11:19:00;;;;;;;14.73;5.65;;;;;;;10.19;76.62;98704.28;5002956;28;20528;-80
2023/02/22 11:21:30;;;;;;;9.43;5.95;;;;;;;10.13;77.75;98692.31;5005098;28;20062;-80
2023/02/22 11:24:03;;;;;;;13.05;5.00;;;;;;;10.36;74.91;98718.50;5007843;28;20077;-81
2023/02/22 11:26:37;;;;;;;15.63;5.30;;;;;;;10.44;76.39;98705.59;5002088;28;20069;-80
2023/02/22 11:29:18;;;;;;;10.05;5.68;;;;;;;10.42;76.47;98685.13;5004653;28;20076;-82
2023/02/22 11:31:47;;;;;;;10.82;5.43;;;;;;;10.55;75.88;98706.97;4996401;28;20050;-80
2023/02/22 11:34:31;;;;;;;10.13;5.97;;;;;;;10.68;76.54;98698.06;5002251;28;20042;-81
2023/02/22 11:37:16;;;;;;;14.07;6.45;;;;;;;10.55;76.72;98673.50;5015886;28;20104;-82
2023/02/22 11:39:43;;;;;;;12.13;5.55;;;;;;;10.78;77.20;98700.47;4989253;28;20680;-80